createdAt,value
2019-01-26T00:00:32.901Z,100585.63
2019-01-26T00:03:02.928Z,100585.16
2019-01-26T00:05:32.958Z,100583.86
2019-01-26T00:08:03.411Z,100575.56
2019-01-26T00:10:33.724Z,100569.04
2019-01-26T00:13:03.762Z,100561.21
2019-01-26T00:15:33.898Z,100555.91
2019-01-26T00:18:03.887Z,100567.66
2019-01-26T00:20:36.457Z,100573.22
2019-01-26T00:23:05.785Z,100560.17
2019-01-26T00:25:36.214Z,100562.70
2019-01-26T00:28:06.161Z,100551.42
2019-01-26T00:30:36.175Z,100558.32
2019-01-26T00:33:06.411Z,100556.09
2019-01-26T00:35:36.433Z,100559.92
2019-01-26T00:38:06.564Z,100552.17
2019-01-26T00:40:36.628Z,100551.17
2019-01-26T00:43:07.123Z,100547.17
2019-01-26T00:45:37.259Z,100543.25
2019-01-26T00:48:07.232Z,100539.17
2019-01-26T00:50:37.280Z,100543.56
2019-01-26T00:53:07.271Z,100542.38
2019-01-26T00:55:37.377Z,100541.66
2019-01-26T00:58:07.363Z,100541.67
2019-01-26T01:00:37.516Z,100538.63
2019-01-26T01:03:07.545Z,100543.48
2019-01-26T01:05:37.494Z,100533.70
2019-01-26T01:08:07.901Z,100535.05
2019-01-26T01:10:37.823Z,100534.20
2019-01-26T01:13:07.797Z,100533.00
2019-01-26T01:15:37.912Z,100533.67
2019-01-26T01:18:07.966Z,100530.01
2019-01-26T01:20:39.828Z,100529.45
2019-01-26T01:23:09.827Z,100530.20
2019-01-26T01:25:39.789Z,100530.03
2019-01-26T01:28:10.267Z,100523.88
2019-01-26T01:30:40.284Z,100526.02
2019-01-26T01:33:10.247Z,100514.92
2019-01-26T01:35:40.565Z,100516.61
2019-01-26T01:38:10.655Z,100510.88
2019-01-26T01:40:40.651Z,100516.95
2019-01-26T01:43:10.745Z,100518.08
2019-01-26T01:45:41.108Z,100513.70
2019-01-26T01:48:11.199Z,100515.75
2019-01-26T01:50:41.457Z,100496.90
2019-01-26T01:53:11.384Z,100501.66
2019-01-26T01:55:41.477Z,100491.20
2019-01-26T01:58:11.844Z,100495.13
2019-01-26T02:00:41.804Z,100495.88
2019-01-26T02:03:12.125Z,100488.31
2019-01-26T02:05:42.446Z,100479.63
2019-01-26T02:08:12.479Z,100484.48
2019-01-26T02:10:43.152Z,100482.25
2019-01-26T02:13:13.314Z,100477.02
2019-01-26T02:15:43.363Z,100468.62
2019-01-26T02:18:14.847Z,100474.69
2019-01-26T02:20:44.812Z,100469.92
2019-01-26T02:23:16.182Z,100460.19
2019-01-26T02:25:46.169Z,100475.31
2019-01-26T02:28:16.175Z,100469.15
2019-01-26T02:30:46.295Z,100472.52
2019-01-26T02:33:16.261Z,100483.34
2019-01-26T02:35:46.339Z,100483.72
2019-01-26T02:38:16.318Z,100476.63
2019-01-26T02:40:46.391Z,100484.47
2019-01-26T02:43:16.373Z,100470.47
2019-01-26T02:45:46.326Z,100469.53
2019-01-26T02:48:16.314Z,100477.16
2019-01-26T02:50:46.336Z,100485.01
2019-01-26T02:53:16.280Z,100485.01
2019-01-26T02:55:46.319Z,100473.98
2019-01-26T02:58:16.318Z,100471.37
2019-01-26T03:00:46.235Z,100470.44
2019-01-26T03:03:16.138Z,100475.67
2019-01-26T03:05:46.038Z,100470.06
2019-01-26T03:08:16.555Z,100473.42
2019-01-26T03:10:46.570Z,100472.13
2019-01-26T03:13:16.408Z,100466.42
2019-01-26T03:15:46.383Z,100463.34
2019-01-26T03:18:16.408Z,100462.78
2019-01-26T03:20:46.646Z,100465.40
2019-01-26T03:23:16.875Z,100467.08
2019-01-26T03:25:47.291Z,100462.59
2019-01-26T03:28:17.268Z,100465.95
2019-01-26T03:30:47.171Z,100455.50
2019-01-26T03:33:17.445Z,100459.80
2019-01-26T03:35:47.334Z,100460.51
2019-01-26T03:38:17.331Z,100446.13
2019-01-26T03:40:47.270Z,100450.79
2019-01-26T03:43:17.242Z,100448.17
2019-01-26T03:45:47.201Z,100449.48
2019-01-26T03:48:17.458Z,100451.53
2019-01-26T03:50:47.403Z,100458.08
2019-01-26T03:53:17.407Z,100449.30
2019-01-26T03:55:47.277Z,100469.38
2019-01-26T03:58:17.292Z,100447.52
2019-01-26T04:00:47.762Z,100449.11
2019-01-26T04:03:17.737Z,100453.03
2019-01-26T04:05:47.953Z,100446.30
2019-01-26T04:08:19.411Z,100445.46
2019-01-26T04:10:49.381Z,100447.98
2019-01-26T04:13:19.527Z,100440.87
2019-01-26T04:15:49.532Z,100443.03
2019-01-26T04:18:19.577Z,100440.28
2019-01-26T04:20:49.589Z,100440.66
2019-01-26T04:23:19.490Z,100439.25
2019-01-26T04:25:49.722Z,100437.48
2019-01-26T04:28:19.755Z,100443.08
2019-01-26T04:30:49.712Z,100440.94
2019-01-26T04:33:20.919Z,100437.75
2019-01-26T04:35:50.996Z,100441.21
2019-01-26T04:38:21.257Z,100432.42
2019-01-26T04:40:51.649Z,100424.58
2019-01-26T04:43:21.621Z,100424.58
2019-01-26T04:45:51.581Z,100422.70
2019-01-26T04:48:21.536Z,100434.48
2019-01-26T04:50:51.487Z,100431.77
2019-01-26T04:53:21.550Z,100431.67
2019-01-26T04:55:51.436Z,100420.27
2019-01-26T04:58:21.430Z,100427.37
2019-01-26T05:00:51.315Z,100421.45
2019-01-26T05:03:21.606Z,100423.22
2019-01-26T05:05:51.857Z,100432.19
2019-01-26T05:08:21.794Z,100430.31
2019-01-26T05:10:51.731Z,100426.23
2019-01-26T05:13:23.244Z,100425.66
2019-01-26T05:15:53.568Z,100423.79
2019-01-26T05:18:23.660Z,100425.94
2019-01-26T05:20:53.790Z,100426.78
2019-01-26T05:23:23.752Z,100429.77
2019-01-26T05:25:53.812Z,100430.48
2019-01-26T05:28:23.766Z,100420.28
2019-01-26T05:30:53.862Z,100426.73
2019-01-26T05:33:24.201Z,100415.59
2019-01-26T05:35:54.537Z,100425.22
2019-01-26T05:38:24.984Z,100421.09
2019-01-26T05:40:54.927Z,100392.77
2019-01-26T05:43:25.217Z,100392.30
2019-01-26T05:45:55.301Z,100400.52
2019-01-26T05:48:25.373Z,100396.97
2019-01-26T05:50:55.397Z,100389.58
2019-01-26T05:53:25.347Z,100385.66
2019-01-26T05:55:55.317Z,100389.02
2019-01-26T05:58:25.638Z,100385.42
2019-01-26T06:00:55.626Z,100388.52
2019-01-26T06:03:25.690Z,100389.25
2019-01-26T06:05:56.050Z,100396.64
2019-01-26T06:08:25.973Z,100390.83
2019-01-26T06:10:56.022Z,100387.00
2019-01-26T06:13:25.862Z,100390.36
2019-01-26T06:15:55.874Z,100387.75
2019-01-26T06:18:25.736Z,100396.34
2019-01-26T06:20:55.814Z,100403.63
2019-01-26T06:23:25.863Z,100397.92
2019-01-26T06:25:56.177Z,100397.55
2019-01-26T06:28:26.110Z,100405.30
2019-01-26T06:30:55.998Z,100401.75
2019-01-26T06:33:25.984Z,100400.71
2019-01-26T06:35:55.979Z,100399.13
2019-01-26T06:38:25.984Z,100395.67
2019-01-26T06:40:55.978Z,100402.12
2019-01-26T06:43:25.937Z,100403.06
2019-01-26T06:45:56.015Z,100395.57
2019-01-26T06:48:26.337Z,100403.80
2019-01-26T06:50:56.273Z,100405.48
2019-01-26T06:53:26.259Z,100402.02
2019-01-26T06:55:56.103Z,100402.02
2019-01-26T06:58:26.371Z,100402.86
2019-01-26T07:00:56.620Z,100393.22
2019-01-26T07:03:26.599Z,100391.17
2019-01-26T07:06:00.879Z,100383.89
2019-01-26T07:08:31.588Z,100380.80
2019-01-26T07:11:02.235Z,100388.28
2019-01-26T07:13:33.804Z,100386.03
2019-01-26T07:16:03.905Z,100387.72
2019-01-26T07:18:33.858Z,100386.88
2019-01-26T07:21:03.835Z,100394.16
2019-01-26T07:23:33.787Z,100395.94
2019-01-26T07:26:03.797Z,100395.47
2019-01-26T07:28:33.677Z,100401.55
2019-01-26T07:31:03.673Z,100400.95
2019-01-26T07:33:33.650Z,100399.27
2019-01-26T07:36:03.671Z,100405.81
2019-01-26T07:38:34.599Z,100408.44
2019-01-26T07:41:04.588Z,100402.73
2019-01-26T07:43:34.529Z,100405.81
2019-01-26T07:46:05.537Z,100402.26
2019-01-26T07:48:35.529Z,100398.80
2019-01-26T07:51:05.593Z,100407.39
2019-01-26T07:53:35.606Z,100387.28
2019-01-26T07:56:06.003Z,100388.69
2019-01-26T07:58:35.965Z,100387.28
2019-01-26T08:01:06.342Z,100385.50
2019-01-26T08:03:36.334Z,100385.50
2019-01-26T08:06:06.299Z,100383.25
2019-01-26T08:08:37.737Z,100384.56
2019-01-26T08:11:08.035Z,100391.58
2019-01-26T08:13:38.001Z,100372.30
2019-01-26T08:16:08.191Z,100384.93
2019-01-26T08:18:38.263Z,100391.02
2019-01-26T08:21:09.565Z,100390.64
2019-01-26T08:23:39.605Z,100397.19
2019-01-26T08:26:09.553Z,100408.98
2019-01-26T08:28:39.577Z,100387.55
2019-01-26T08:31:11.794Z,100398.50
2019-01-26T08:33:47.106Z,100382.05
2019-01-26T08:36:17.084Z,100396.25
2019-01-26T08:38:47.036Z,100388.39
2019-01-26T08:41:17.022Z,100380.44
2019-01-26T08:43:47.260Z,100369.12
2019-01-26T08:46:17.315Z,100375.20
2019-01-26T08:48:47.249Z,100367.80
2019-01-26T08:51:17.325Z,100368.55
2019-01-26T08:53:48.874Z,100366.87
2019-01-26T08:56:18.767Z,100366.77
2019-01-26T08:58:49.699Z,100374.42
2019-01-26T09:01:19.669Z,100370.39
2019-01-26T09:03:57.886Z,100361.83
2019-01-26T09:06:30.792Z,100361.72
2019-01-26T09:09:00.779Z,100366.02
2019-01-26T09:11:32.333Z,100369.75
2019-01-26T09:14:02.194Z,100380.70
2019-01-26T09:16:32.247Z,100384.16
2019-01-26T09:19:02.256Z,100371.80
2019-01-26T09:21:32.319Z,100378.34
2019-01-26T09:24:02.288Z,100381.70
2019-01-26T09:26:32.801Z,100386.57
2019-01-26T09:29:02.727Z,100384.89
2019-01-26T09:31:32.690Z,100379.19
2019-01-26T09:34:02.563Z,100380.97
2019-01-26T09:36:32.552Z,100382.27
2019-01-26T09:39:02.408Z,100386.57
2019-01-26T09:41:33.666Z,100390.03
2019-01-26T09:44:03.607Z,100387.31
2019-01-26T09:46:33.608Z,100396.95
2019-01-26T09:49:03.534Z,100383.95
2019-01-26T09:51:33.563Z,100389.93
2019-01-26T09:54:03.843Z,100383.28
2019-01-26T09:56:33.798Z,100390.88
2019-01-26T09:59:04.506Z,100388.99
2019-01-26T10:01:34.492Z,100387.31
2019-01-26T10:04:04.416Z,100387.68
2019-01-26T10:06:34.434Z,100383.14
2019-01-26T10:09:08.730Z,100391.74
2019-01-26T10:11:39.112Z,100379.01
2019-01-26T10:14:09.072Z,100388.81
2019-01-26T10:16:39.546Z,100383.84
2019-01-26T10:19:09.561Z,100381.95
2019-01-26T10:21:39.659Z,100375.20
2019-01-26T10:24:09.631Z,100376.63
2019-01-26T10:26:39.585Z,100370.24
2019-01-26T10:29:09.458Z,100378.27
2019-01-26T10:31:39.430Z,100382.94
2019-01-26T10:34:09.372Z,100377.69
2019-01-26T10:36:54.531Z,100370.89
2019-01-26T10:39:24.687Z,100373.89
2019-01-26T10:42:12.864Z,100367.70
2019-01-26T10:44:43.196Z,100357.47
2019-01-26T10:47:13.181Z,100341.42
2019-01-26T10:49:43.227Z,100339.08
2019-01-26T10:52:13.203Z,100342.73
2019-01-26T10:54:43.143Z,100344.90
2019-01-26T10:57:13.086Z,100354.59
2019-01-26T10:59:43.187Z,100347.31
2019-01-26T11:02:13.664Z,100346.36
2019-01-26T11:04:43.697Z,100334.09
2019-01-26T11:07:14.031Z,100337.91
2019-01-26T11:09:44.014Z,100336.02
2019-01-26T11:12:14.562Z,100330.05
2019-01-26T11:14:44.550Z,100340.44
2019-01-26T11:17:14.897Z,100326.01
2019-01-26T11:19:44.998Z,100331.62
2019-01-26T11:22:14.856Z,100328.41
2019-01-26T11:24:46.011Z,100318.64
2019-01-26T11:27:16.038Z,100324.15
2019-01-26T11:29:46.147Z,100328.56
2019-01-26T11:32:16.197Z,100323.82
2019-01-26T11:34:46.132Z,100318.57
2019-01-26T11:37:16.243Z,100323.82
2019-01-26T11:39:50.463Z,100330.02
2019-01-26T11:42:20.383Z,100324.41
2019-01-26T11:45:08.916Z,100301.37
2019-01-26T11:47:38.733Z,100296.85
2019-01-26T11:50:12.625Z,100295.91
2019-01-26T11:52:42.702Z,100290.77
2019-01-26T11:55:27.567Z,100280.52
2019-01-26T11:57:57.569Z,100278.23
2019-01-26T12:00:46.531Z,100271.67
2019-01-26T12:03:29.472Z,100272.39
2019-01-26T12:06:09.228Z,100261.31
2019-01-26T12:08:39.189Z,100262.16
2019-01-26T12:11:09.157Z,100257.16
2019-01-26T12:13:39.080Z,100240.23
2019-01-26T12:16:09.033Z,100231.66
2019-01-26T12:18:39.064Z,100233.92
2019-01-26T12:21:09.020Z,100230.62
2019-01-26T12:23:39.007Z,100228.72
2019-01-26T12:26:08.962Z,100232.17
2019-01-26T12:28:38.951Z,100229.80
2019-01-26T12:31:08.896Z,100230.48
2019-01-26T12:33:38.892Z,100226.31
2019-01-26T12:36:08.858Z,100217.13
2019-01-26T12:38:38.840Z,100221.91
2019-01-26T12:41:08.764Z,100210.92
2019-01-26T12:43:38.720Z,100207.81
2019-01-26T12:46:08.685Z,100197.07
2019-01-26T12:48:38.679Z,100201.60
2019-01-26T12:51:08.891Z,100197.09
2019-01-26T12:53:38.883Z,100194.58
2019-01-26T12:56:09.535Z,100193.86
2019-01-26T12:58:39.474Z,100182.63
2019-01-26T13:01:09.537Z,100183.70
2019-01-26T13:03:39.460Z,100181.66
2019-01-26T13:06:09.809Z,100184.05
2019-01-26T13:08:39.781Z,100178.22
2019-01-26T13:11:22.776Z,100177.84
2019-01-26T13:13:53.072Z,100179.86
2019-01-26T13:16:23.393Z,100167.81
2019-01-26T13:18:53.375Z,100171.02
2019-01-26T13:21:23.329Z,100163.85
2019-01-26T13:23:53.328Z,100160.87
2019-01-26T13:26:23.305Z,100158.83
2019-01-26T13:29:02.883Z,100154.06
2019-01-26T13:31:32.849Z,100154.06
2019-01-26T13:34:02.776Z,100139.16
2019-01-26T13:36:32.764Z,100138.58
2019-01-26T13:39:04.288Z,100133.33
2019-01-26T13:41:34.979Z,100128.44
2019-01-26T13:44:05.336Z,100124.39
2019-01-26T13:46:35.575Z,100112.58
2019-01-26T13:49:05.574Z,100115.20
2019-01-26T13:51:35.512Z,100109.95
2019-01-26T13:54:05.569Z,100107.55
2019-01-26T13:56:35.505Z,100105.53
2019-01-26T13:59:05.530Z,100096.34
2019-01-26T14:01:35.491Z,100091.45
2019-01-26T14:04:05.516Z,100103.03
2019-01-26T14:06:35.579Z,100094.69
2019-01-26T14:09:08.666Z,100087.65
2019-01-26T14:11:38.572Z,100089.91
2019-01-26T14:14:08.591Z,100093.98
2019-01-26T14:16:39.922Z,100084.19
2019-01-26T14:19:09.854Z,100084.19
2019-01-26T14:21:39.782Z,100079.30
2019-01-26T14:24:09.748Z,100071.54
2019-01-26T14:26:39.657Z,100068.44
2019-01-26T14:29:09.594Z,100076.92
2019-01-26T14:31:40.592Z,100063.64
2019-01-26T14:34:10.466Z,100064.63
2019-01-26T14:36:40.324Z,100059.86
2019-01-26T14:39:10.455Z,100056.52
2019-01-26T14:41:40.655Z,100051.15
2019-01-26T14:44:11.000Z,100049.95
2019-01-26T14:46:40.915Z,100042.44
2019-01-26T14:49:10.890Z,100040.53
2019-01-26T14:51:40.793Z,100037.40
2019-01-26T14:54:11.127Z,100031.67
2019-01-26T14:56:41.058Z,100024.04
2019-01-26T14:59:11.391Z,100024.88
2019-01-26T15:01:41.357Z,100016.16
2019-01-26T15:04:11.289Z,100019.03
2019-01-26T15:06:41.233Z,100004.59
2019-01-26T15:09:11.155Z,100003.76
2019-01-26T15:11:41.100Z,100004.71
2019-01-26T15:14:10.966Z,99999.70
2019-01-26T15:16:40.965Z,99993.26
2019-01-26T15:19:10.896Z,99985.27
2019-01-26T15:21:40.836Z,99981.80
2019-01-26T15:24:10.830Z,99980.97
2019-01-26T15:26:40.756Z,99969.28
2019-01-26T15:29:10.970Z,99966.66
2019-01-26T15:31:41.192Z,99971.30
2019-01-26T15:34:11.120Z,99970.47
2019-01-26T15:36:41.094Z,99962.00
2019-01-26T15:39:10.981Z,99959.49
2019-01-26T15:41:40.943Z,99949.15
2019-01-26T15:44:10.850Z,99946.52
2019-01-26T15:46:40.818Z,99941.13
2019-01-26T15:49:10.675Z,99939.61
2019-01-26T15:51:40.633Z,99939.13
2019-01-26T15:54:10.542Z,99934.36
2019-01-26T15:56:40.347Z,99927.80
2019-01-26T15:59:10.207Z,99923.38
2019-01-26T16:01:39.976Z,99922.66
2019-01-26T16:04:09.833Z,99924.34
2019-01-26T16:06:40.225Z,99921.71
2019-01-26T16:09:10.979Z,99936.23
2019-01-26T16:11:41.000Z,99924.54
2019-01-26T16:14:10.995Z,99925.05
2019-01-26T16:16:40.913Z,99916.46
2019-01-26T16:19:10.923Z,99908.59
2019-01-26T16:21:40.975Z,99902.63
2019-01-26T16:24:10.957Z,99896.42
2019-01-26T16:26:40.909Z,99895.23
2019-01-26T16:29:11.172Z,99890.10
2019-01-26T16:31:42.412Z,99893.80
2019-01-26T16:34:12.671Z,99884.27
2019-01-26T16:36:42.653Z,99881.28
2019-01-26T16:39:12.564Z,99879.97
2019-01-26T16:41:42.506Z,99868.64
2019-01-26T16:44:12.425Z,99868.28
2019-01-26T16:46:42.296Z,99861.01
2019-01-26T16:49:12.271Z,99869.51
2019-01-26T16:51:42.447Z,99859.97
2019-01-26T16:54:12.406Z,99849.12
2019-01-26T16:56:42.447Z,99846.26
2019-01-26T16:59:12.468Z,99847.57
2019-01-26T17:01:42.824Z,99839.82
2019-01-26T17:04:12.864Z,99838.51
2019-01-26T17:06:42.744Z,99831.23
2019-01-26T17:09:13.103Z,99833.98
2019-01-26T17:11:43.017Z,99819.55
2019-01-26T17:14:12.981Z,99820.39
2019-01-26T17:16:42.896Z,99816.09
2019-01-26T17:19:12.809Z,99811.09
2019-01-26T17:21:42.763Z,99805.52
2019-01-26T17:24:13.179Z,99800.88
2019-01-26T17:26:43.306Z,99799.45
2019-01-26T17:29:13.326Z,99792.77
2019-01-26T17:31:43.332Z,99789.67
2019-01-26T17:34:14.738Z,99778.83
2019-01-26T17:36:45.733Z,99778.95
2019-01-26T17:39:15.664Z,99774.66
2019-01-26T17:41:45.765Z,99767.42
2019-01-26T17:44:15.985Z,99756.94
2019-01-26T17:46:45.936Z,99750.37
2019-01-26T17:49:15.854Z,99748.00
2019-01-26T17:51:45.727Z,99749.66
2019-01-26T17:54:15.689Z,99741.80
2019-01-26T17:56:45.577Z,99747.52
2019-01-26T17:59:16.234Z,99742.27
2019-01-26T18:01:46.373Z,99730.95
2019-01-26T18:04:16.525Z,99733.93
2019-01-26T18:06:46.376Z,99725.70
2019-01-26T18:09:16.368Z,99718.20
2019-01-26T18:11:46.562Z,99722.25
2019-01-26T18:14:16.637Z,99713.43
2019-01-26T18:16:46.517Z,99707.47
2019-01-26T18:19:16.655Z,99706.16
2019-01-26T18:21:47.050Z,99700.44
2019-01-26T18:24:17.040Z,99693.41
2019-01-26T18:26:46.953Z,99687.33
2019-01-26T18:29:17.024Z,99685.66
2019-01-26T18:31:46.929Z,99671.59
2019-01-26T18:34:16.949Z,99675.53
2019-01-26T18:36:46.866Z,99668.02
2019-01-26T18:39:16.848Z,99662.77
2019-01-26T18:41:46.692Z,99662.77
2019-01-26T18:44:16.627Z,99654.42
2019-01-26T18:46:46.656Z,99655.38
2019-01-26T18:49:16.434Z,99650.97
2019-01-26T18:51:46.626Z,99649.41
2019-01-26T18:54:25.757Z,99644.64
2019-01-26T18:56:55.623Z,99637.09
2019-01-26T18:59:25.572Z,99632.14
2019-01-26T19:01:55.419Z,99623.31
2019-01-26T19:04:37.627Z,99620.56
2019-01-26T19:07:08.402Z,99617.94
2019-01-26T19:09:38.401Z,99616.12
2019-01-26T19:12:08.374Z,99604.31
2019-01-26T19:14:38.410Z,99604.19
2019-01-26T19:17:08.323Z,99600.26
2019-01-26T19:19:38.309Z,99591.44
2019-01-26T20:20:33.387Z,99505.59
2019-01-26T20:23:03.358Z,99500.35
2019-01-26T20:25:33.637Z,99488.20
2019-01-26T20:28:04.051Z,99488.67
2019-01-26T20:30:35.001Z,99485.23
2019-01-26T20:33:05.164Z,99479.50
2019-01-26T20:35:35.156Z,99476.27
2019-01-26T20:38:05.478Z,99470.55
2019-01-26T20:40:35.418Z,99455.64
2019-01-26T20:43:05.426Z,99453.02
2019-01-26T20:45:35.391Z,99444.67
2019-01-26T20:48:05.327Z,99441.70
2019-01-26T20:50:36.222Z,99433.00
2019-01-26T20:53:06.404Z,99434.78
2019-01-26T20:55:36.693Z,99422.03
2019-01-26T20:58:06.637Z,99418.09
2019-01-26T21:00:36.583Z,99409.74
2019-01-26T21:03:06.475Z,99398.30
2019-01-26T21:05:36.447Z,99394.23
2019-01-26T21:08:06.436Z,99398.98
2019-01-26T21:10:36.476Z,99386.36
2019-01-26T21:13:06.521Z,99378.36
2019-01-26T21:15:36.468Z,99370.14
2019-01-26T21:18:06.717Z,99366.69
2019-01-26T21:20:37.107Z,99368.83
2019-01-26T21:23:06.987Z,99354.41
2019-01-26T21:25:36.947Z,99354.54
2019-01-26T21:28:06.797Z,99354.19
2019-01-26T21:30:36.763Z,99342.39
2019-01-26T21:33:06.864Z,99343.56
2019-01-26T21:35:36.766Z,99337.36
2019-01-26T21:38:06.863Z,99329.63
2019-01-26T21:40:36.935Z,99317.82
2019-01-26T21:43:07.135Z,99310.57
2019-01-26T21:45:37.432Z,99309.26
2019-01-26T21:48:07.670Z,99301.39
2019-01-26T21:50:37.608Z,99297.11
2019-01-26T21:53:07.596Z,99291.86
2019-01-26T21:55:37.532Z,99285.66
2019-01-26T21:58:07.827Z,99271.37
2019-01-26T22:00:37.838Z,99265.98
2019-01-26T22:03:07.840Z,99269.92
2019-01-26T22:05:37.890Z,99261.78
2019-01-26T22:08:09.701Z,99263.31
2019-01-26T22:10:39.614Z,99268.20
2019-01-26T22:13:09.571Z,99259.03
2019-01-26T22:15:39.543Z,99256.89
2019-01-26T22:18:09.573Z,99246.75
2019-01-26T22:20:39.541Z,99230.80
2019-01-26T22:23:09.526Z,99231.14
2019-01-26T22:25:39.573Z,99227.69
2019-01-26T22:28:09.582Z,99222.45
2019-01-26T22:30:39.670Z,99217.55
2019-01-26T22:33:09.912Z,99212.30
2019-01-26T22:35:39.904Z,99208.98
2019-01-26T22:38:09.867Z,99213.27
2019-01-26T22:40:39.989Z,99205.40
2019-01-26T22:43:09.966Z,99199.19
2019-01-26T22:45:39.942Z,99200.50
2019-01-26T22:48:09.908Z,99192.91
2019-01-26T22:50:39.851Z,99182.42
2019-01-26T22:53:09.805Z,99172.06
2019-01-26T22:55:39.728Z,99171.58
2019-01-26T22:58:09.998Z,99161.44
2019-01-26T23:01:07.967Z,99156.67
2019-01-26T23:04:15.181Z,99148.33
2019-01-26T23:07:15.642Z,99139.77
2019-01-26T23:10:18.467Z,99135.00
2019-01-26T23:13:09.162Z,99124.66
2019-01-26T23:16:15.080Z,99122.03
2019-01-26T23:19:41.304Z,99113.20
2019-01-26T23:23:01.217Z,99102.71
2019-01-26T23:26:01.439Z,99095.53
2019-01-26T23:29:00.407Z,99088.84
2019-01-26T23:31:30.332Z,99077.80
2019-01-26T23:34:00.300Z,99069.31
2019-01-26T23:36:30.292Z,99067.52
2019-01-26T23:39:02.392Z,99063.23
2019-01-26T23:41:33.514Z,99053.23
2019-01-26T23:44:03.475Z,99045.22
2019-01-26T23:46:33.469Z,99041.16
2019-01-26T23:49:03.419Z,99030.66
2019-01-26T23:51:35.103Z,99032.31
2019-01-26T23:54:05.667Z,99016.58
2019-01-26T23:56:35.462Z,99004.30
2019-01-26T23:59:05.394Z,99000.70
